sensor_id;sensor_type;location;lat;lon;timestamp;pressure;altitude;pressure_sealevel;temperature;humidity
49104;BME280;34915;52.926;11.116;2022-10-26T00:01:12;101665.69;;;8.71;100.00
49104;BME280;34915;52.926;11.116;2022-10-26T00:03:44;101662.41;;;8.66;100.00
49104;BME280;34915;52.926;11.116;2022-10-26T00:06:15;101660.91;;;8.60;100.00
49104;BME280;34915;52.926;11.116;2022-10-26T00:08:44;101661.75;;;8.61;100.00
49104;BME280;34915;52.926;11.116;2022-10-26T00:11:11;101659.69;;;8.67;100.00
49104;BME280;34915;52.926;11.116;2022-10-26T00:13:37;101654.63;;;8.63;100.00
49104;BME280;34915;52.926;11.116;2022-10-26T00:16:14;101660.63;;;8.66;100.00
49104;BME280;34915;52.926;11.116;2022-10-26T00:18:40;101670.03;;;8.72;100.00
49104;BME280;34915;52.926;11.116;2022-10-26T00:21:08;101666.44;;;8.73;100.00
49104;BME280;34915;52.926;11.116;2022-10-26T00:23:34;101657.91;;;8.68;100.00
49104;BME280;34915;52.926;11.116;2022-10-26T00:26:00;101665.97;;;8.65;100.00
49104;BME280;34915;52.926;11.116;2022-10-26T00:28:25;101667.69;;;8.66;100.00
49104;BME280;34915;52.926;11.116;2022-10-26T00:30:51;101665.75;;;8.69;100.00
49104;BME280;34915;52.926;11.116;2022-10-26T00:33:17;101662.25;;;8.69;100.00
49104;BME280;34915;52.926;11.116;2022-10-26T00:35:46;101665.19;;;8.63;100.00
49104;BME280;34915;52.926;11.116;2022-10-26T00:38:15;101663.78;;;8.56;100.00
49104;BME280;34915;52.926;11.116;2022-10-26T00:40:40;101660.63;;;8.48;100.00
49104;BME280;34915;52.926;11.116;2022-10-26T00:43:15;101662.78;;;8.40;100.00
49104;BME280;34915;52.926;11.116;2022-10-26T00:45:45;101664.91;;;8.32;100.00
49104;BME280;34915;52.926;11.116;2022-10-26T00:48:22;101657.81;;;8.34;100.00
49104;BME280;34915;52.926;11.116;2022-10-26T00:50:50;101663.94;;;8.34;100.00
49104;BME280;34915;52.926;11.116;2022-10-26T00:53:21;101655.78;;;8.39;100.00
49104;BME280;34915;52.926;11.116;2022-10-26T00:55:49;101661.94;;;8.39;100.00
49104;BME280;34915;52.926;11.116;2022-10-26T00:58:19;101655.94;;;8.36;100.00
49104;BME280;34915;52.926;11.116;2022-10-26T01:00:46;101654.22;;;8.35;100.00
49104;BME280;34915;52.926;11.116;2022-10-26T01:03:12;101651.78;;;8.31;100.00
49104;BME280;34915;52.926;11.116;2022-10-26T01:05:43;101661.38;;;8.33;100.00
49104;BME280;34915;52.926;11.116;2022-10-26T01:08:10;101661.59;;;8.29;100.00
49104;BME280;34915;52.926;11.116;2022-10-26T01:10:41;101659.63;;;8.32;100.00
49104;BME280;34915;52.926;11.116;2022-10-26T01:13:07;101654.66;;;8.26;100.00
49104;BME280;34915;52.926;11.116;2022-10-26T01:32:45;101658.69;;;8.16;100.00
49104;BME280;34915;52.926;11.116;2022-10-26T01:43:46;101658.16;;;7.88;100.00
49104;BME280;34915;52.926;11.116;2022-10-26T01:46:16;101655.66;;;7.85;100.00
49104;BME280;34915;52.926;11.116;2022-10-26T01:48:49;101650.88;;;7.75;100.00
49104;BME280;34915;52.926;11.116;2022-10-26T01:51:16;101655.19;;;7.78;100.00
49104;BME280;34915;52.926;11.116;2022-10-26T01:53:47;101655.31;;;7.75;100.00
49104;BME280;34915;52.926;11.116;2022-10-26T01:56:35;101653.44;;;7.77;100.00
49104;BME280;34915;52.926;11.116;2022-10-26T02:05:17;101644.91;;;7.72;100.00
49104;BME280;34915;52.926;11.116;2022-10-26T02:18:30;101647.25;;;7.39;100.00
49104;BME280;34915;52.926;11.116;2022-10-26T02:21:04;101640.47;;;7.34;100.00
49104;BME280;34915;52.926;11.116;2022-10-26T02:23:36;101630.81;;;7.33;100.00
49104;BME280;34915;52.926;11.116;2022-10-26T02:26:07;101637.97;;;7.31;100.00
49104;BME280;34915;52.926;11.116;2022-10-26T02:28:36;101636.50;;;7.24;100.00
49104;BME280;34915;52.926;11.116;2022-10-26T02:31:05;101637.34;;;7.25;100.00
49104;BME280;34915;52.926;11.116;2022-10-26T02:33:39;101627.56;;;7.28;100.00
49104;BME280;34915;52.926;11.116;2022-10-26T02:36:08;101643.38;;;7.28;100.00
49104;BME280;34915;52.926;11.116;2022-10-26T02:38:36;101639.81;;;7.29;100.00
49104;BME280;34915;52.926;11.116;2022-10-26T02:41:07;101631.09;;;7.27;100.00
49104;BME280;34915;52.926;11.116;2022-10-26T02:43:42;101618.84;;;7.26;100.00
49104;BME280;34915;52.926;11.116;2022-10-26T02:46:16;101634.66;;;7.26;100.00
49104;BME280;34915;52.926;11.116;2022-10-26T02:48:42;101630.19;;;7.28;100.00
49104;BME280;34915;52.926;11.116;2022-10-26T02:57:11;101630.16;;;7.48;100.00
49104;BME280;34915;52.926;11.116;2022-10-26T02:59:41;101631.50;;;7.38;100.00
49104;BME280;34915;52.926;11.116;2022-10-26T03:02:08;101635.84;;;7.39;100.00
49104;BME280;34915;52.926;11.116;2022-10-26T03:04:34;101642.03;;;7.38;100.00
49104;BME280;34915;52.926;11.116;2022-10-26T03:07:03;101640.53;;;7.33;100.00
49104;BME280;34915;52.926;11.116;2022-10-26T03:09:28;101642.53;;;7.28;100.00
49104;BME280;34915;52.926;11.116;2022-10-26T03:11:55;101642.25;;;7.34;100.00
49104;BME280;34915;52.926;11.116;2022-10-26T03:14:20;101648.69;;;7.27;100.00
49104;BME280;34915;52.926;11.116;2022-10-26T03:16:49;101645.31;;;7.23;100.00
49104;BME280;34915;52.926;11.116;2022-10-26T03:19:15;101638.34;;;7.22;100.00
49104;BME280;34915;52.926;11.116;2022-10-26T03:21:40;101641.91;;;7.21;100.00
49104;BME280;34915;52.926;11.116;2022-10-26T03:24:07;101635.94;;;7.18;100.00
49104;BME280;34915;52.926;11.116;2022-10-26T03:26:33;101642.81;;;7.20;100.00
49104;BME280;34915;52.926;11.116;2022-10-26T03:28:58;101640.19;;;7.20;100.00
49104;BME280;34915;52.926;11.116;2022-10-26T03:31:24;101641.59;;;7.09;100.00
49104;BME280;34915;52.926;11.116;2022-10-26T03:33:49;101640.97;;;7.02;100.00
49104;BME280;34915;52.926;11.116;2022-10-26T03:36:18;101644.91;;;6.92;100.00
49104;BME280;34915;52.926;11.116;2022-10-26T03:38:43;101639.00;;;6.87;100.00
49104;BME280;34915;52.926;11.116;2022-10-26T03:41:09;101631.09;;;6.87;100.00
49104;BME280;34915;52.926;11.116;2022-10-26T03:43:34;101632.81;;;6.88;100.00
49104;BME280;34915;52.926;11.116;2022-10-26T03:46:00;101630.97;;;6.90;100.00
49104;BME280;34915;52.926;11.116;2022-10-26T03:48:25;101631.09;;;6.87;100.00
49104;BME280;34915;52.926;11.116;2022-10-26T03:50:51;101638.06;;;6.88;100.00
49104;BME280;34915;52.926;11.116;2022-10-26T03:53:17;101635.38;;;6.90;100.00
49104;BME280;34915;52.926;11.116;2022-10-26T03:55:43;101630.09;;;6.90;100.00
49104;BME280;34915;52.926;11.116;2022-10-26T03:58:12;101639.63;;;6.92;100.00
49104;BME280;34915;52.926;11.116;2022-10-26T04:00:37;101638.06;;;6.88;100.00
49104;BME280;34915;52.926;11.116;2022-10-26T04:03:03;101634.50;;;6.89;100.00
49104;BME280;34915;52.926;11.116;2022-10-26T04:05:31;101636.34;;;6.87;100.00
49104;BME280;34915;52.926;11.116;2022-10-26T04:07:59;101634.75;;;6.84;100.00
49104;BME280;34915;52.926;11.116;2022-10-26T04:10:30;101626.06;;;6.82;100.00
49104;BME280;34915;52.926;11.116;2022-10-26T04:12:57;101627.78;;;6.83;100.00
49104;BME280;34915;52.926;11.116;2022-10-26T04:15:25;101627.53;;;6.88;100.00
49104;BME280;34915;52.926;11.116;2022-10-26T04:17:59;101634.50;;;6.89;100.00
49104;BME280;34915;52.926;11.116;2022-10-26T04:20:27;101628.25;;;6.92;100.00
49104;BME280;34915;52.926;11.116;2022-10-26T04:22:58;101630.97;;;6.90;100.00
49104;BME280;34915;52.926;11.116;2022-10-26T04:25:24;101629.84;;;6.96;100.00
49104;BME280;34915;52.926;11.116;2022-10-26T04:27:49;101630.44;;;7.02;100.00
49104;BME280;34915;52.926;11.116;2022-10-26T04:30:15;101623.31;;;7.04;100.00
49104;BME280;34915;52.926;11.116;2022-10-26T04:32:43;101619.75;;;7.05;100.00
49104;BME280;34915;52.926;11.116;2022-10-26T04:35:12;101623.31;;;7.04;100.00
49104;BME280;34915;52.926;11.116;2022-10-26T04:37:37;101618.03;;;7.04;100.00
49104;BME280;34915;52.926;11.116;2022-10-26T04:40:03;101624.25;;;7.03;100.00
49104;BME280;34915;52.926;11.116;2022-10-26T04:42:29;101619.75;;;7.05;100.00
49104;BME280;34915;52.926;11.116;2022-10-26T04:45:01;101618.72;;;7.09;100.00
49104;BME280;34915;52.926;11.116;2022-10-26T04:47:26;101617.69;;;7.13;100.00
49104;BME280;34915;52.926;11.116;2022-10-26T04:49:52;101619.38;;;7.14;100.00
49104;BME280;34915;52.926;11.116;2022-10-26T04:52:17;101614.09;;;7.14;100.00
49104;BME280;34915;52.926;11.116;2022-10-26T04:54:43;101605.41;;;7.12;100.00
49104;BME280;34915;52.926;11.116;2022-10-26T04:57:09;101605.94;;;7.00;100.00
49104;BME280;34915;52.926;11.116;2022-10-26T04:59:34;101608.97;;;6.91;100.00
49104;BME280;34915;52.926;11.116;2022-10-26T05:02:00;101605.72;;;6.85;100.00
49104;BME280;34915;52.926;11.116;2022-10-26T05:04:25;101599.13;;;6.75;100.00
49104;BME280;34915;52.926;11.116;2022-10-26T05:06:51;101600.38;;;6.67;100.00
49104;BME280;34915;52.926;11.116;2022-10-26T05:09:21;101603.81;;;6.69;100.00
49104;BME280;34915;52.926;11.116;2022-10-26T05:11:48;101604.72;;;6.68;100.00
49104;BME280;34915;52.926;11.116;2022-10-26T05:14:16;101611.97;;;6.63;100.00
49104;BME280;34915;52.926;11.116;2022-10-26T05:16:42;101607.47;;;6.65;100.00
49104;BME280;34915;52.926;11.116;2022-10-26T05:19:11;101605.53;;;6.70;100.00
49104;BME280;34915;52.926;11.116;2022-10-26T05:21:37;101596.81;;;6.68;100.00
49104;BME280;34915;52.926;11.116;2022-10-26T05:24:03;101600.63;;;6.61;100.00
49104;BME280;34915;52.926;11.116;2022-10-26T05:26:28;101600.88;;;6.55;100.00
49104;BME280;34915;52.926;11.116;2022-10-26T05:28:57;101605.34;;;6.53;100.00
49104;BME280;34915;52.926;11.116;2022-10-26T05:31:26;101606.13;;;6.55;100.00
49104;BME280;34915;52.926;11.116;2022-10-26T05:33:51;101599.31;;;6.51;100.00
49104;BME280;34915;52.926;11.116;2022-10-26T05:36:17;101611.78;;;6.46;100.00
49104;BME280;34915;52.926;11.116;2022-10-26T05:38:44;101610.41;;;6.36;100.00
49104;BME280;34915;52.926;11.116;2022-10-26T05:41:09;101604.50;;;6.31;100.00
49104;BME280;34915;52.926;11.116;2022-10-26T05:43:35;101600.63;;;6.18;100.00
49104;BME280;34915;52.926;11.116;2022-10-26T05:46:01;101608.53;;;6.18;100.00
49104;BME280;34915;52.926;11.116;2022-10-26T05:48:26;101602.72;;;6.10;100.00
49104;BME280;34915;52.926;11.116;2022-10-26T05:51:01;101607.22;;;6.07;100.00
49104;BME280;34915;52.926;11.116;2022-10-26T05:53:29;101609.78;;;6.08;100.00
49104;BME280;34915;52.926;11.116;2022-10-26T05:55:56;101625.56;;;6.08;100.00
49104;BME280;34915;52.926;11.116;2022-10-26T05:58:25;101614.94;;;6.11;100.00
49104;BME280;34915;52.926;11.116;2022-10-26T06:03:54;101618.81;;;6.03;100.00
49104;BME280;34915;52.926;11.116;2022-10-26T06:06:37;101622.75;;;5.91;100.00
49104;BME280;34915;52.926;11.116;2022-10-26T06:09:10;101624.56;;;5.89;100.00
49104;BME280;34915;52.926;11.116;2022-10-26T06:11:36;101630.06;;;5.84;100.00
49104;BME280;34915;52.926;11.116;2022-10-26T06:14:07;101629.09;;;5.86;100.00
49104;BME280;34915;52.926;11.116;2022-10-26T06:22:23;101636.91;;;5.88;100.00
49104;BME280;34915;52.926;11.116;2022-10-26T06:30:50;101629.81;;;5.89;100.00
49104;BME280;34915;52.926;11.116;2022-10-26T06:33:20;101626.41;;;5.88;100.00
49104;BME280;34915;52.926;11.116;2022-10-26T06:35:54;101629.94;;;5.87;100.00
49104;BME280;34915;52.926;11.116;2022-10-26T06:38:24;101630.06;;;5.84;100.00
49104;BME280;34915;52.926;11.116;2022-10-26T06:40:54;101631.66;;;5.88;100.00
49104;BME280;34915;52.926;11.116;2022-10-26T06:43:24;101630.59;;;5.93;100.00
49104;BME280;34915;52.926;11.116;2022-10-26T06:48:34;101640.63;;;6.05;100.00
49104;BME280;34915;52.926;11.116;2022-10-26T06:51:03;101634.28;;;6.10;100.00
49104;BME280;34915;52.926;11.116;2022-10-26T06:53:40;101632.31;;;6.15;100.00
49104;BME280;34915;52.926;11.116;2022-10-26T06:56:12;101637.34;;;6.21;100.00
49104;BME280;34915;52.926;11.116;2022-10-26T06:58:44;101640.66;;;6.26;100.00
49104;BME280;34915;52.926;11.116;2022-10-26T07:01:10;101640.19;;;6.38;100.00
49104;BME280;34915;52.926;11.116;2022-10-26T07:03:37;101632.94;;;6.43;100.00
49104;BME280;34915;52.926;11.116;2022-10-26T07:06:06;101647.03;;;6.42;100.00
49104;BME280;34915;52.926;11.116;2022-10-26T07:08:31;101640.78;;;6.44;100.00
49104;BME280;34915;52.926;11.116;2022-10-26T07:11:00;101641.78;;;6.42;100.00
49104;BME280;34915;52.926;11.116;2022-10-26T07:13:25;101646.91;;;6.45;100.00
49104;BME280;34915;52.926;11.116;2022-10-26T07:15:54;101644.94;;;6.50;100.00
49104;BME280;34915;52.926;11.116;2022-10-26T07:18:23;101645.53;;;6.56;100.00
49104;BME280;34915;52.926;11.116;2022-10-26T07:20:53;101653.16;;;6.64;100.00
49104;BME280;34915;52.926;11.116;2022-10-26T07:23:19;101642.50;;;6.67;100.00
49104;BME280;34915;52.926;11.116;2022-10-26T07:25:49;101654.47;;;6.74;100.00
49104;BME280;34915;52.926;11.116;2022-10-26T07:28:14;101658.59;;;6.81;100.00
49104;BME280;34915;52.926;11.116;2022-10-26T07:30:40;101648.06;;;6.81;100.00
49104;BME280;34915;52.926;11.116;2022-10-26T07:33:10;101648.59;;;6.88;100.00
49104;BME280;34915;52.926;11.116;2022-10-26T07:35:37;101657.41;;;6.87;100.00
49104;BME280;34915;52.926;11.116;2022-10-26T07:38:06;101659.16;;;6.88;100.00
49104;BME280;34915;52.926;11.116;2022-10-26T07:40:32;101661.41;;;6.97;100.00
49104;BME280;34915;52.926;11.116;2022-10-26T07:42:59;101663.78;;;7.03;100.00
49104;BME280;34915;52.926;11.116;2022-10-26T07:45:28;101658.09;;;7.12;100.00
49104;BME280;34915;52.926;11.116;2022-10-26T07:47:54;101668.25;;;7.21;100.00
49104;BME280;34915;52.926;11.116;2022-10-26T07:50:23;101662.31;;;7.36;100.00
49104;BME280;34915;52.926;11.116;2022-10-26T07:52:49;101660.50;;;7.38;100.00
49104;BME280;34915;52.926;11.116;2022-10-26T07:55:18;101660.38;;;7.41;100.00
49104;BME280;34915;52.926;11.116;2022-10-26T07:57:44;101656.41;;;7.51;100.00
49104;BME280;34915;52.926;11.116;2022-10-26T08:00:13;101649.84;;;7.59;100.00
49104;BME280;34915;52.926;11.116;2022-10-26T08:02:39;101653.03;;;7.67;100.00
49104;BME280;34915;52.926;11.116;2022-10-26T08:05:05;101650.66;;;7.80;100.00
49104;BME280;34915;52.926;11.116;2022-10-26T08:07:31;101642.19;;;7.91;100.00
49104;BME280;34915;52.926;11.116;2022-10-26T08:09:59;101648.47;;;8.07;100.00
49104;BME280;34915;52.926;11.116;2022-10-26T08:12:25;101653.41;;;8.16;100.00
49104;BME280;34915;52.926;11.116;2022-10-26T08:14:50;101639.94;;;8.39;100.00
49104;BME280;34915;52.926;11.116;2022-10-26T08:17:16;101645.22;;;8.57;100.00
49104;BME280;34915;52.926;11.116;2022-10-26T08:19:41;101649.50;;;8.60;100.00
49104;BME280;34915;52.926;11.116;2022-10-26T08:22:10;101646.72;;;8.80;100.00
49104;BME280;34915;52.926;11.116;2022-10-26T08:24:36;101644.59;;;8.87;100.00
49104;BME280;34915;52.926;11.116;2022-10-26T08:27:05;101650.50;;;9.09;100.00
49104;BME280;34915;52.926;11.116;2022-10-26T08:29:30;101639.16;;;9.24;100.00
49104;BME280;34915;52.926;11.116;2022-10-26T08:31:56;101639.78;;;9.61;100.00
49104;BME280;34915;52.926;11.116;2022-10-26T08:34:21;101640.00;;;9.74;100.00
49104;BME280;34915;52.926;11.116;2022-10-26T08:36:47;101649.94;;;9.85;100.00
49104;BME280;34915;52.926;11.116;2022-10-26T08:39:14;101641.16;;;10.17;100.00
49104;BME280;34915;52.926;11.116;2022-10-26T08:41:45;101640.97;;;10.20;100.00
49104;BME280;34915;52.926;11.116;2022-10-26T08:44:41;101641.56;;;10.25;100.00
49104;BME280;34915;52.926;11.116;2022-10-26T08:52:43;101639.41;;;10.78;100.00
49104;BME280;34915;52.926;11.116;2022-10-26T08:55:15;101631.69;;;10.88;100.00
49104;BME280;34915;52.926;11.116;2022-10-26T08:57:44;101628.16;;;11.03;100.00
49104;BME280;34915;52.926;11.116;2022-10-26T09:00:18;101628.75;;;11.08;100.00
49104;BME280;34915;52.926;11.116;2022-10-26T09:02:51;101630.88;;;11.31;100.00
49104;BME280;34915;52.926;11.116;2022-10-26T09:05:33;101629.00;;;11.33;100.00
49104;BME280;34915;52.926;11.116;2022-10-26T09:13:40;101632.47;;;11.63;100.00
49104;BME280;34915;52.926;11.116;2022-10-26T09:16:29;101628.50;;;11.97;100.00
49104;BME280;34915;52.926;11.116;2022-10-26T09:29:32;101628.63;;;12.50;100.00
49104;BME280;34915;52.926;11.116;2022-10-26T09:32:03;101616.16;;;12.77;100.00
49104;BME280;34915;52.926;11.116;2022-10-26T09:34:45;101621.66;;;12.61;100.00
49104;BME280;34915;52.926;11.116;2022-10-26T09:37:20;101621.69;;;12.74;100.00
49104;BME280;34915;52.926;11.116;2022-10-26T09:39:57;101626.81;;;12.77;100.00
49104;BME280;34915;52.926;11.116;2022-10-26T09:45:17;101615.63;;;12.98;100.00
49104;BME280;34915;52.926;11.116;2022-10-26T09:47:50;101621.00;;;13.10;100.00
49104;BME280;34915;52.926;11.116;2022-10-26T09:50:31;101610.16;;;13.13;100.00
49104;BME280;34915;52.926;11.116;2022-10-26T09:52:57;101619.34;;;13.34;100.00
49104;BME280;34915;52.926;11.116;2022-10-26T09:55:26;101617.19;;;13.39;100.00
49104;BME280;34915;52.926;11.116;2022-10-26T09:57:57;101615.94;;;13.69;100.00
49104;BME280;34915;52.926;11.116;2022-10-26T10:00:26;101620.97;;;13.61;100.00
49104;BME280;34915;52.926;11.116;2022-10-26T10:02:55;101622.53;;;13.64;100.00
49104;BME280;34915;52.926;11.116;2022-10-26T10:05:25;101617.75;;;13.69;100.00
49104;BME280;34915;52.926;11.116;2022-10-26T10:07:52;101609.13;;;13.77;100.00
49104;BME280;34915;52.926;11.116;2022-10-26T10:10:21;101611.47;;;14.19;100.00
49104;BME280;34915;52.926;11.116;2022-10-26T10:12:49;101613.56;;;14.27;100.00
49104;BME280;34915;52.926;11.116;2022-10-26T10:15:20;101616.56;;;14.22;100.00
49104;BME280;34915;52.926;11.116;2022-10-26T10:17:54;101606.97;;;14.07;100.00
49104;BME280;34915;52.926;11.116;2022-10-26T10:20:23;101607.13;;;14.29;100.00
49104;BME280;34915;52.926;11.116;2022-10-26T10:22:54;101603.53;;;14.30;100.00
49104;BME280;34915;52.926;11.116;2022-10-26T10:25:37;101600.63;;;14.33;100.00
49104;BME280;34915;52.926;11.116;2022-10-26T10:28:25;101604.56;;;14.40;100.00
49104;BME280;34915;52.926;11.116;2022-10-26T10:30:56;101599.00;;;14.43;100.00
49104;BME280;34915;52.926;11.116;2022-10-26T10:33:34;101604.47;;;14.65;100.00
49104;BME280;34915;52.926;11.116;2022-10-26T10:36:01;101601.66;;;14.78;100.00
49104;BME280;34915;52.926;11.116;2022-10-26T10:38:37;101612.09;;;14.81;100.00
49104;BME280;34915;52.926;11.116;2022-10-26T10:41:16;101615.25;;;14.86;100.00
49104;BME280;34915;52.926;11.116;2022-10-26T10:43:45;101621.97;;;15.26;96.64
49104;BME280;34915;52.926;11.116;2022-10-26T10:46:23;101624.41;;;15.29;97.71
49104;BME280;34915;52.926;11.116;2022-10-26T10:48:54;101615.28;;;15.55;96.09
49104;BME280;34915;52.926;11.116;2022-10-26T10:51:25;101611.00;;;15.52;95.68
49104;BME280;34915;52.926;11.116;2022-10-26T10:53:53;101605.53;;;15.43;96.87
49104;BME280;34915;52.926;11.116;2022-10-26T11:01:38;101609.97;;;15.77;95.53
49104;BME280;34915;52.926;11.116;2022-10-26T11:06:35;101609.50;;;15.93;94.39
49104;BME280;34915;52.926;11.116;2022-10-26T11:09:12;101606.06;;;15.91;94.68
49104;BME280;34915;52.926;11.116;2022-10-26T11:11:47;101609.75;;;16.12;93.39
49104;BME280;34915;52.926;11.116;2022-10-26T11:17:01;101617.75;;;16.12;95.18
49104;BME280;34915;52.926;11.116;2022-10-26T11:19:42;101608.50;;;16.16;95.80
49104;BME280;34915;52.926;11.116;2022-10-26T11:22:14;101609.75;;;16.23;94.01
49104;BME280;34915;52.926;11.116;2022-10-26T11:24:50;101609.25;;;16.29;93.02
49104;BME280;34915;52.926;11.116;2022-10-26T11:27:41;101610.41;;;16.58;92.13
49104;BME280;34915;52.926;11.116;2022-10-26T11:30:21;101615.66;;;16.48;92.83
49104;BME280;34915;52.926;11.116;2022-10-26T11:33:01;101617.63;;;16.46;93.73
49104;BME280;34915;52.926;11.116;2022-10-26T11:35:43;101618.44;;;16.47;94.13
49104;BME280;34915;52.926;11.116;2022-10-26T11:40:49;101602.00;;;16.62;93.99
49104;BME280;34915;52.926;11.116;2022-10-26T11:43:41;101595.56;;;16.65;92.41
49104;BME280;34915;52.926;11.116;2022-10-26T11:46:27;101600.84;;;16.86;91.56
49104;BME280;34915;52.926;11.116;2022-10-26T11:48:59;101602.78;;;16.84;91.62
49104;BME280;34915;52.926;11.116;2022-10-26T11:53:56;101605.84;;;16.80;92.45
49104;BME280;34915;52.926;11.116;2022-10-26T11:56:29;101597.84;;;17.00;90.63
49104;BME280;34915;52.926;11.116;2022-10-26T11:58:56;101598.09;;;16.97;90.52
49104;BME280;34915;52.926;11.116;2022-10-26T12:01:24;101596.19;;;16.99;90.70
49104;BME280;34915;52.926;11.116;2022-10-26T12:03:53;101602.78;;;17.16;89.79
49104;BME280;34915;52.926;11.116;2022-10-26T12:06:27;101604.34;;;17.18;87.91
49104;BME280;34915;52.926;11.116;2022-10-26T12:09:06;101600.94;;;17.27;88.01
49104;BME280;34915;52.926;11.116;2022-10-26T12:11:34;101597.13;;;17.50;87.50
49104;BME280;34915;52.926;11.116;2022-10-26T12:14:37;101600.00;;;17.58;86.36
49104;BME280;34915;52.926;11.116;2022-10-26T12:17:14;101602.81;;;17.77;83.67
49104;BME280;34915;52.926;11.116;2022-10-26T12:22:36;101597.41;;;17.97;81.86
49104;BME280;34915;52.926;11.116;2022-10-26T12:35:32;101607.16;;;17.77;83.55
49104;BME280;34915;52.926;11.116;2022-10-26T12:37:59;101601.63;;;17.70;85.05
49104;BME280;34915;52.926;11.116;2022-10-26T12:54:05;101618.94;;;17.25;85.30
49104;BME280;34915;52.926;11.116;2022-10-26T12:56:54;101621.16;;;17.20;87.86
49104;BME280;34915;52.926;11.116;2022-10-26T12:59:26;101617.53;;;17.21;88.85
49104;BME280;34915;52.926;11.116;2022-10-26T13:09:36;101626.75;;;17.17;87.79
49104;BME280;34915;52.926;11.116;2022-10-26T13:12:04;101628.44;;;17.18;89.24
49104;BME280;34915;52.926;11.116;2022-10-26T13:14:34;101627.25;;;17.22;88.58
49104;BME280;34915;52.926;11.116;2022-10-26T13:17:03;101631.13;;;17.18;88.18
49104;BME280;34915;52.926;11.116;2022-10-26T13:19:44;101629.22;;;17.09;91.46
49104;BME280;34915;52.926;11.116;2022-10-26T13:22:18;101628.94;;;17.12;91.13
49104;BME280;34915;52.926;11.116;2022-10-26T13:24:47;101634.31;;;17.12;90.01
49104;BME280;34915;52.926;11.116;2022-10-26T13:32:35;101642.34;;;17.23;89.40
49104;BME280;34915;52.926;11.116;2022-10-26T13:35:11;101640.66;;;17.11;89.99
49104;BME280;34915;52.926;11.116;2022-10-26T13:37:40;101638.81;;;17.12;91.41
49104;BME280;34915;52.926;11.116;2022-10-26T13:40:11;101642.41;;;17.01;89.73
49104;BME280;34915;52.926;11.116;2022-10-26T13:42:49;101646.03;;;17.00;91.61
49104;BME280;34915;52.926;11.116;2022-10-26T13:45:24;101639.75;;;16.90;92.49
49104;BME280;34915;52.926;11.116;2022-10-26T13:48:02;101634.31;;;16.81;92.97
49104;BME280;34915;52.926;11.116;2022-10-26T13:50:35;101638.84;;;16.80;92.98
49104;BME280;34915;52.926;11.116;2022-10-26T13:53:38;101641.97;;;16.85;94.11
49104;BME280;34915;52.926;11.116;2022-10-26T13:58:44;101643.19;;;16.81;94.62
49104;BME280;34915;52.926;11.116;2022-10-26T14:01:16;101648.34;;;16.74;95.56
49104;BME280;34915;52.926;11.116;2022-10-26T14:03:42;101647.81;;;16.79;95.43
49104;BME280;34915;52.926;11.116;2022-10-26T14:06:26;101650.72;;;16.87;92.43
49104;BME280;34915;52.926;11.116;2022-10-26T14:08:56;101656.06;;;16.87;92.92
49104;BME280;34915;52.926;11.116;2022-10-26T14:11:42;101654.00;;;16.80;93.73
49104;BME280;34915;52.926;11.116;2022-10-26T14:14:16;101646.13;;;16.78;96.33
49104;BME280;34915;52.926;11.116;2022-10-26T14:16:43;101650.25;;;16.72;97.08
49104;BME280;34915;52.926;11.116;2022-10-26T14:19:33;101646.63;;;16.73;97.83
49104;BME280;34915;52.926;11.116;2022-10-26T14:22:03;101637.88;;;16.71;97.96
49104;BME280;34915;52.926;11.116;2022-10-26T14:24:34;101641.53;;;16.70;98.75
49104;BME280;34915;52.926;11.116;2022-10-26T14:27:17;101637.63;;;16.74;97.95
49104;BME280;34915;52.926;11.116;2022-10-26T14:29:45;101660.13;;;16.71;97.96
49104;BME280;34915;52.926;11.116;2022-10-26T14:32:28;101662.94;;;16.70;95.16
49104;BME280;34915;52.926;11.116;2022-10-26T14:34:59;101648.84;;;16.68;95.56
49104;BME280;34915;52.926;11.116;2022-10-26T14:37:52;101647.59;;;16.72;97.51
49104;BME280;34915;52.926;11.116;2022-10-26T14:40:23;101641.31;;;16.62;97.89
49104;BME280;34915;52.926;11.116;2022-10-26T14:42:57;101646.91;;;16.59;98.26
49104;BME280;34915;52.926;11.116;2022-10-26T14:47:55;101658.81;;;16.55;99.46
49104;BME280;34915;52.926;11.116;2022-10-26T14:50:23;101652.25;;;16.48;99.36
49104;BME280;34915;52.926;11.116;2022-10-26T14:52:51;101652.00;;;16.51;99.20
49104;BME280;34915;52.926;11.116;2022-10-26T14:55:18;101655.91;;;16.47;100.00
49104;BME280;34915;52.926;11.116;2022-10-26T14:57:47;101653.47;;;16.44;100.00
49104;BME280;34915;52.926;11.116;2022-10-26T15:02:55;101664.41;;;16.41;99.75
49104;BME280;34915;52.926;11.116;2022-10-26T15:05:32;101651.28;;;16.38;99.74
49104;BME280;34915;52.926;11.116;2022-10-26T15:07:59;101651.06;;;16.41;98.47
49104;BME280;34915;52.926;11.116;2022-10-26T15:15:54;101667.34;;;16.49;96.37
49104;BME280;34915;52.926;11.116;2022-10-26T15:18:32;101664.78;;;16.58;94.64
49104;BME280;34915;52.926;11.116;2022-10-26T15:21:20;101670.03;;;16.49;96.63
49104;BME280;34915;52.926;11.116;2022-10-26T15:23:51;101667.31;;;16.60;95.42
49104;BME280;34915;52.926;11.116;2022-10-26T15:26:21;101666.09;;;16.53;95.49
49104;BME280;34915;52.926;11.116;2022-10-26T15:28:50;101672.19;;;16.44;97.03
49104;BME280;34915;52.926;11.116;2022-10-26T15:36:25;101681.19;;;16.21;100.00
49104;BME280;34915;52.926;11.116;2022-10-26T15:38:51;101684.34;;;16.15;100.00